sensor_id;sensor_type;location;lat;lon;timestamp;P1;durP1;ratioP1;P2;durP2;ratioP2
46158;SDS011;31888;44.512;26.104;2023-01-25T00:02:04;43.40;;;15.77;;
46158;SDS011;31888;44.512;26.104;2023-01-25T00:04:29;50.65;;;19.17;;
46158;SDS011;31888;44.512;26.104;2023-01-25T00:06:55;59.10;;;20.98;;
46158;SDS011;31888;44.512;26.104;2023-01-25T00:09:21;58.53;;;21.10;;
46158;SDS011;31888;44.512;26.104;2023-01-25T00:11:46;55.47;;;18.20;;
46158;SDS011;31888;44.512;26.104;2023-01-25T00:14:11;56.00;;;19.90;;
46158;SDS011;31888;44.512;26.104;2023-01-25T00:16:36;56.22;;;19.13;;
46158;SDS011;31888;44.512;26.104;2023-01-25T00:19:01;59.72;;;19.48;;
46158;SDS011;31888;44.512;26.104;2023-01-25T00:21:26;62.60;;;22.67;;
46158;SDS011;31888;44.512;26.104;2023-01-25T00:23:52;57.65;;;20.50;;
46158;SDS011;31888;44.512;26.104;2023-01-25T00:26:17;54.58;;;20.40;;
46158;SDS011;31888;44.512;26.104;2023-01-25T00:28:42;55.55;;;18.75;;
46158;SDS011;31888;44.512;26.104;2023-01-25T00:31:15;49.70;;;18.87;;
46158;SDS011;31888;44.512;26.104;2023-01-25T00:33:48;48.95;;;18.45;;
46158;SDS011;31888;44.512;26.104;2023-01-25T00:39:11;48.25;;;17.63;;
46158;SDS011;31888;44.512;26.104;2023-01-25T00:41:35;56.70;;;20.45;;
46158;SDS011;31888;44.512;26.104;2023-01-25T00:44:01;54.30;;;18.55;;
46158;SDS011;31888;44.512;26.104;2023-01-25T00:46:25;60.95;;;22.17;;
46158;SDS011;31888;44.512;26.104;2023-01-25T00:48:51;49.58;;;18.05;;
46158;SDS011;31888;44.512;26.104;2023-01-25T00:51:17;52.55;;;19.35;;
46158;SDS011;31888;44.512;26.104;2023-01-25T00:53:42;52.15;;;18.75;;
46158;SDS011;31888;44.512;26.104;2023-01-25T00:56:08;56.53;;;21.42;;
46158;SDS011;31888;44.512;26.104;2023-01-25T00:58:32;54.42;;;20.27;;
46158;SDS011;31888;44.512;26.104;2023-01-25T01:01:00;51.42;;;19.42;;
46158;SDS011;31888;44.512;26.104;2023-01-25T01:03:25;51.72;;;20.83;;
46158;SDS011;31888;44.512;26.104;2023-01-25T01:05:57;52.55;;;21.25;;
46158;SDS011;31888;44.512;26.104;2023-01-25T01:08:23;54.42;;;21.10;;
46158;SDS011;31888;44.512;26.104;2023-01-25T01:10:47;57.40;;;19.75;;
46158;SDS011;31888;44.512;26.104;2023-01-25T01:13:14;57.08;;;19.02;;
46158;SDS011;31888;44.512;26.104;2023-01-25T01:15:39;46.65;;;17.98;;
46158;SDS011;31888;44.512;26.104;2023-01-25T01:18:04;46.15;;;19.08;;
46158;SDS011;31888;44.512;26.104;2023-01-25T01:20:28;49.20;;;19.25;;
46158;SDS011;31888;44.512;26.104;2023-01-25T01:22:53;53.30;;;19.27;;
46158;SDS011;31888;44.512;26.104;2023-01-25T01:25:18;46.83;;;18.88;;
46158;SDS011;31888;44.512;26.104;2023-01-25T01:27:42;47.95;;;18.90;;
46158;SDS011;31888;44.512;26.104;2023-01-25T01:30:09;41.60;;;16.42;;
46158;SDS011;31888;44.512;26.104;2023-01-25T01:32:36;52.13;;;19.02;;
46158;SDS011;31888;44.512;26.104;2023-01-25T01:35:00;52.88;;;19.73;;
46158;SDS011;31888;44.512;26.104;2023-01-25T01:37:25;45.10;;;17.92;;
46158;SDS011;31888;44.512;26.104;2023-01-25T01:39:50;46.38;;;16.90;;
46158;SDS011;31888;44.512;26.104;2023-01-25T01:42:15;42.38;;;16.33;;
46158;SDS011;31888;44.512;26.104;2023-01-25T01:44:44;45.08;;;15.90;;
46158;SDS011;31888;44.512;26.104;2023-01-25T01:47:12;38.90;;;15.90;;
46158;SDS011;31888;44.512;26.104;2023-01-25T01:49:41;44.97;;;17.30;;
46158;SDS011;31888;44.512;26.104;2023-01-25T01:52:13;42.22;;;15.90;;
46158;SDS011;31888;44.512;26.104;2023-01-25T01:54:40;42.20;;;16.05;;
46158;SDS011;31888;44.512;26.104;2023-01-25T01:57:09;39.47;;;15.52;;
46158;SDS011;31888;44.512;26.104;2023-01-25T01:59:38;39.92;;;15.75;;
46158;SDS011;31888;44.512;26.104;2023-01-25T02:02:06;36.05;;;14.68;;
46158;SDS011;31888;44.512;26.104;2023-01-25T02:04:32;35.58;;;13.73;;
46158;SDS011;31888;44.512;26.104;2023-01-25T02:07:04;34.35;;;13.82;;
46158;SDS011;31888;44.512;26.104;2023-01-25T02:09:33;38.88;;;13.75;;
46158;SDS011;31888;44.512;26.104;2023-01-25T02:11:59;34.42;;;13.90;;
46158;SDS011;31888;44.512;26.104;2023-01-25T02:14:26;33.28;;;13.77;;
46158;SDS011;31888;44.512;26.104;2023-01-25T02:16:54;43.03;;;15.35;;
46158;SDS011;31888;44.512;26.104;2023-01-25T02:19:25;78.50;;;27.38;;
46158;SDS011;31888;44.512;26.104;2023-01-25T02:21:59;68.95;;;28.48;;
46158;SDS011;31888;44.512;26.104;2023-01-25T02:24:29;39.17;;;16.73;;
46158;SDS011;31888;44.512;26.104;2023-01-25T02:26:57;41.25;;;16.75;;
46158;SDS011;31888;44.512;26.104;2023-01-25T02:29:22;38.10;;;15.48;;
46158;SDS011;31888;44.512;26.104;2023-01-25T02:31:57;36.28;;;14.60;;
46158;SDS011;31888;44.512;26.104;2023-01-25T02:34:23;32.47;;;13.27;;
46158;SDS011;31888;44.512;26.104;2023-01-25T02:36:47;37.13;;;15.90;;
46158;SDS011;31888;44.512;26.104;2023-01-25T02:39:12;66.05;;;26.80;;
46158;SDS011;31888;44.512;26.104;2023-01-25T02:41:44;68.30;;;25.92;;
46158;SDS011;31888;44.512;26.104;2023-01-25T02:44:13;76.53;;;29.25;;
46158;SDS011;31888;44.512;26.104;2023-01-25T02:46:40;49.63;;;18.77;;
46158;SDS011;31888;44.512;26.104;2023-01-25T02:49:07;29.50;;;11.02;;
46158;SDS011;31888;44.512;26.104;2023-01-25T02:51:33;36.05;;;13.90;;
46158;SDS011;31888;44.512;26.104;2023-01-25T02:54:00;26.17;;;10.57;;
46158;SDS011;31888;44.512;26.104;2023-01-25T02:56:25;46.47;;;14.15;;
46158;SDS011;31888;44.512;26.104;2023-01-25T02:58:51;35.53;;;12.57;;
46158;SDS011;31888;44.512;26.104;2023-01-25T03:01:18;36.47;;;13.02;;
46158;SDS011;31888;44.512;26.104;2023-01-25T03:03:43;29.13;;;10.35;;
46158;SDS011;31888;44.512;26.104;2023-01-25T03:06:07;35.92;;;12.88;;
46158;SDS011;31888;44.512;26.104;2023-01-25T03:08:34;38.75;;;12.85;;
46158;SDS011;31888;44.512;26.104;2023-01-25T03:11:00;25.10;;;10.02;;
46158;SDS011;31888;44.512;26.104;2023-01-25T03:13:26;27.23;;;11.18;;
46158;SDS011;31888;44.512;26.104;2023-01-25T03:15:56;27.08;;;10.05;;
46158;SDS011;31888;44.512;26.104;2023-01-25T03:18:24;23.55;;;8.57;;
46158;SDS011;31888;44.512;26.104;2023-01-25T03:20:49;23.42;;;8.93;;
46158;SDS011;31888;44.512;26.104;2023-01-25T03:23:14;26.35;;;9.68;;
46158;SDS011;31888;44.512;26.104;2023-01-25T03:25:39;24.38;;;8.93;;
46158;SDS011;31888;44.512;26.104;2023-01-25T03:30:53;26.60;;;9.80;;
46158;SDS011;31888;44.512;26.104;2023-01-25T03:33:19;24.75;;;10.73;;
46158;SDS011;31888;44.512;26.104;2023-01-25T03:35:47;23.65;;;8.38;;
46158;SDS011;31888;44.512;26.104;2023-01-25T03:38:15;23.08;;;9.98;;
46158;SDS011;31888;44.512;26.104;2023-01-25T03:40:41;23.40;;;9.00;;
46158;SDS011;31888;44.512;26.104;2023-01-25T03:43:06;19.05;;;8.93;;
46158;SDS011;31888;44.512;26.104;2023-01-25T03:45:31;28.50;;;11.50;;
46158;SDS011;31888;44.512;26.104;2023-01-25T03:47:56;22.88;;;9.30;;
46158;SDS011;31888;44.512;26.104;2023-01-25T03:50:21;33.63;;;12.55;;
46158;SDS011;31888;44.512;26.104;2023-01-25T03:52:49;18.33;;;8.23;;
46158;SDS011;31888;44.512;26.104;2023-01-25T03:55:28;23.88;;;9.45;;
46158;SDS011;31888;44.512;26.104;2023-01-25T03:57:54;19.85;;;8.43;;
46158;SDS011;31888;44.512;26.104;2023-01-25T04:00:20;20.00;;;8.85;;
46158;SDS011;31888;44.512;26.104;2023-01-25T04:02:53;19.20;;;9.13;;
46158;SDS011;31888;44.512;26.104;2023-01-25T04:05:18;19.98;;;8.27;;
46158;SDS011;31888;44.512;26.104;2023-01-25T04:07:42;20.65;;;7.93;;
46158;SDS011;31888;44.512;26.104;2023-01-25T04:10:11;22.02;;;8.85;;
46158;SDS011;31888;44.512;26.104;2023-01-25T04:12:39;22.27;;;8.85;;
46158;SDS011;31888;44.512;26.104;2023-01-25T04:15:04;20.73;;;8.70;;
46158;SDS011;31888;44.512;26.104;2023-01-25T04:17:30;16.52;;;7.15;;
46158;SDS011;31888;44.512;26.104;2023-01-25T04:20:00;20.65;;;8.70;;
46158;SDS011;31888;44.512;26.104;2023-01-25T04:22:33;22.95;;;9.68;;
46158;SDS011;31888;44.512;26.104;2023-01-25T04:24:59;19.55;;;7.90;;
46158;SDS011;31888;44.512;26.104;2023-01-25T04:27:26;19.50;;;7.90;;
46158;SDS011;31888;44.512;26.104;2023-01-25T04:29:59;21.75;;;7.70;;
46158;SDS011;31888;44.512;26.104;2023-01-25T04:32:25;19.38;;;8.45;;
46158;SDS011;31888;44.512;26.104;2023-01-25T04:34:51;20.27;;;7.82;;
46158;SDS011;31888;44.512;26.104;2023-01-25T04:37:18;23.88;;;8.02;;
46158;SDS011;31888;44.512;26.104;2023-01-25T04:39:50;15.55;;;7.32;;
46158;SDS011;31888;44.512;26.104;2023-01-25T04:42:15;20.15;;;7.78;;
46158;SDS011;31888;44.512;26.104;2023-01-25T04:44:45;18.90;;;7.32;;
46158;SDS011;31888;44.512;26.104;2023-01-25T04:47:10;23.10;;;7.53;;
46158;SDS011;31888;44.512;26.104;2023-01-25T04:49:35;18.55;;;6.97;;
46158;SDS011;31888;44.512;26.104;2023-01-25T04:51:59;20.95;;;8.20;;
46158;SDS011;31888;44.512;26.104;2023-01-25T04:54:24;23.80;;;8.77;;
46158;SDS011;31888;44.512;26.104;2023-01-25T04:56:49;18.30;;;7.90;;
46158;SDS011;31888;44.512;26.104;2023-01-25T04:59:14;18.75;;;8.00;;
46158;SDS011;31888;44.512;26.104;2023-01-25T05:01:42;19.45;;;7.15;;
46158;SDS011;31888;44.512;26.104;2023-01-25T05:04:07;22.17;;;8.27;;
46158;SDS011;31888;44.512;26.104;2023-01-25T05:06:35;20.10;;;8.48;;
46158;SDS011;31888;44.512;26.104;2023-01-25T05:09:00;21.15;;;8.40;;
46158;SDS011;31888;44.512;26.104;2023-01-25T05:11:27;26.95;;;10.73;;
46158;SDS011;31888;44.512;26.104;2023-01-25T05:16:31;24.23;;;9.13;;
46158;SDS011;31888;44.512;26.104;2023-01-25T05:18:58;19.52;;;7.85;;
46158;SDS011;31888;44.512;26.104;2023-01-25T05:21:33;22.27;;;9.80;;
46158;SDS011;31888;44.512;26.104;2023-01-25T05:24:15;26.13;;;9.07;;
46158;SDS011;31888;44.512;26.104;2023-01-25T05:26:43;22.58;;;7.72;;
46158;SDS011;31888;44.512;26.104;2023-01-25T05:29:43;21.30;;;8.35;;
46158;SDS011;31888;44.512;26.104;2023-01-25T05:32:10;37.15;;;12.48;;
46158;SDS011;31888;44.512;26.104;2023-01-25T05:34:38;27.58;;;10.57;;
46158;SDS011;31888;44.512;26.104;2023-01-25T05:37:04;23.83;;;9.98;;
46158;SDS011;31888;44.512;26.104;2023-01-25T05:39:34;26.73;;;11.20;;
46158;SDS011;31888;44.512;26.104;2023-01-25T05:41:58;28.70;;;11.15;;
46158;SDS011;31888;44.512;26.104;2023-01-25T05:44:23;26.38;;;9.88;;
46158;SDS011;31888;44.512;26.104;2023-01-25T05:46:49;21.20;;;8.82;;
46158;SDS011;31888;44.512;26.104;2023-01-25T05:49:14;30.90;;;11.88;;
46158;SDS011;31888;44.512;26.104;2023-01-25T05:51:40;31.40;;;11.90;;
46158;SDS011;31888;44.512;26.104;2023-01-25T05:54:06;23.95;;;10.32;;
46158;SDS011;31888;44.512;26.104;2023-01-25T05:56:38;19.33;;;7.93;;
46158;SDS011;31888;44.512;26.104;2023-01-25T05:59:03;29.42;;;11.23;;
46158;SDS011;31888;44.512;26.104;2023-01-25T06:01:28;29.05;;;10.50;;
46158;SDS011;31888;44.512;26.104;2023-01-25T06:03:53;25.42;;;9.60;;
46158;SDS011;31888;44.512;26.104;2023-01-25T06:06:20;22.85;;;9.70;;
46158;SDS011;31888;44.512;26.104;2023-01-25T06:08:46;24.25;;;10.25;;
46158;SDS011;31888;44.512;26.104;2023-01-25T06:11:13;24.73;;;10.07;;
46158;SDS011;31888;44.512;26.104;2023-01-25T06:13:40;23.67;;;10.30;;
46158;SDS011;31888;44.512;26.104;2023-01-25T06:16:05;24.00;;;10.55;;
46158;SDS011;31888;44.512;26.104;2023-01-25T06:18:36;28.80;;;10.68;;
46158;SDS011;31888;44.512;26.104;2023-01-25T06:21:14;31.33;;;10.60;;
46158;SDS011;31888;44.512;26.104;2023-01-25T06:23:38;30.50;;;11.23;;
46158;SDS011;31888;44.512;26.104;2023-01-25T06:26:09;25.33;;;11.18;;
46158;SDS011;31888;44.512;26.104;2023-01-25T06:28:36;29.73;;;10.93;;
46158;SDS011;31888;44.512;26.104;2023-01-25T06:31:04;30.42;;;10.82;;
46158;SDS011;31888;44.512;26.104;2023-01-25T06:33:30;30.02;;;10.68;;
46158;SDS011;31888;44.512;26.104;2023-01-25T06:35:58;28.73;;;11.80;;
46158;SDS011;31888;44.512;26.104;2023-01-25T06:38:23;32.13;;;12.80;;
46158;SDS011;31888;44.512;26.104;2023-01-25T06:40:48;28.65;;;11.52;;
46158;SDS011;31888;44.512;26.104;2023-01-25T06:43:15;29.77;;;12.23;;
46158;SDS011;31888;44.512;26.104;2023-01-25T06:45:39;36.25;;;13.73;;
46158;SDS011;31888;44.512;26.104;2023-01-25T06:48:05;28.15;;;12.32;;
46158;SDS011;31888;44.512;26.104;2023-01-25T06:50:30;31.02;;;11.93;;
46158;SDS011;31888;44.512;26.104;2023-01-25T06:52:55;32.00;;;12.68;;
46158;SDS011;31888;44.512;26.104;2023-01-25T06:55:20;31.67;;;12.60;;
46158;SDS011;31888;44.512;26.104;2023-01-25T06:57:48;32.78;;;12.98;;
46158;SDS011;31888;44.512;26.104;2023-01-25T07:00:22;29.38;;;12.70;;
46158;SDS011;31888;44.512;26.104;2023-01-25T07:02:46;43.72;;;16.13;;
46158;SDS011;31888;44.512;26.104;2023-01-25T07:05:11;30.77;;;11.30;;
46158;SDS011;31888;44.512;26.104;2023-01-25T07:07:36;28.33;;;12.48;;
46158;SDS011;31888;44.512;26.104;2023-01-25T07:10:01;28.65;;;10.48;;
46158;SDS011;31888;44.512;26.104;2023-01-25T07:12:27;31.65;;;12.57;;
46158;SDS011;31888;44.512;26.104;2023-01-25T07:14:52;31.75;;;10.95;;
46158;SDS011;31888;44.512;26.104;2023-01-25T07:17:18;36.30;;;14.20;;
46158;SDS011;31888;44.512;26.104;2023-01-25T07:19:42;33.83;;;12.57;;
46158;SDS011;31888;44.512;26.104;2023-01-25T07:22:07;24.52;;;10.18;;
46158;SDS011;31888;44.512;26.104;2023-01-25T07:24:32;29.73;;;12.07;;
46158;SDS011;31888;44.512;26.104;2023-01-25T07:26:56;27.25;;;11.68;;
46158;SDS011;31888;44.512;26.104;2023-01-25T07:29:22;35.65;;;13.35;;
46158;SDS011;31888;44.512;26.104;2023-01-25T07:31:47;31.10;;;13.35;;
46158;SDS011;31888;44.512;26.104;2023-01-25T07:34:13;33.88;;;13.75;;
46158;SDS011;31888;44.512;26.104;2023-01-25T07:36:38;34.20;;;14.00;;
46158;SDS011;31888;44.512;26.104;2023-01-25T07:39:05;33.53;;;12.63;;
46158;SDS011;31888;44.512;26.104;2023-01-25T07:41:31;29.80;;;10.82;;
46158;SDS011;31888;44.512;26.104;2023-01-25T07:43:56;30.13;;;10.57;;
46158;SDS011;31888;44.512;26.104;2023-01-25T07:46:29;30.98;;;12.43;;
46158;SDS011;31888;44.512;26.104;2023-01-25T07:48:54;28.25;;;11.70;;
46158;SDS011;31888;44.512;26.104;2023-01-25T07:51:22;32.10;;;11.77;;
46158;SDS011;31888;44.512;26.104;2023-01-25T07:53:50;32.92;;;11.13;;
46158;SDS011;31888;44.512;26.104;2023-01-25T07:56:16;36.13;;;13.75;;
46158;SDS011;31888;44.512;26.104;2023-01-25T07:58:42;30.05;;;11.95;;
46158;SDS011;31888;44.512;26.104;2023-01-25T08:01:07;30.90;;;12.00;;
46158;SDS011;31888;44.512;26.104;2023-01-25T08:03:32;28.98;;;10.68;;
46158;SDS011;31888;44.512;26.104;2023-01-25T08:05:57;33.67;;;12.45;;
46158;SDS011;31888;44.512;26.104;2023-01-25T08:08:24;28.98;;;10.93;;
46158;SDS011;31888;44.512;26.104;2023-01-25T08:10:48;26.83;;;10.95;;
46158;SDS011;31888;44.512;26.104;2023-01-25T08:13:14;35.72;;;12.93;;
46158;SDS011;31888;44.512;26.104;2023-01-25T08:15:38;39.13;;;12.70;;
46158;SDS011;31888;44.512;26.104;2023-01-25T08:18:03;33.97;;;12.23;;
46158;SDS011;31888;44.512;26.104;2023-01-25T08:20:27;31.85;;;11.75;;
46158;SDS011;31888;44.512;26.104;2023-01-25T08:22:52;31.88;;;13.20;;
46158;SDS011;31888;44.512;26.104;2023-01-25T08:25:18;30.60;;;11.90;;
46158;SDS011;31888;44.512;26.104;2023-01-25T08:27:43;30.48;;;13.38;;
46158;SDS011;31888;44.512;26.104;2023-01-25T08:30:08;32.00;;;13.20;;
46158;SDS011;31888;44.512;26.104;2023-01-25T08:32:34;36.13;;;12.70;;
46158;SDS011;31888;44.512;26.104;2023-01-25T08:34:59;39.85;;;11.40;;
46158;SDS011;31888;44.512;26.104;2023-01-25T08:37:24;31.95;;;13.23;;
46158;SDS011;31888;44.512;26.104;2023-01-25T08:39:51;31.77;;;12.45;;
46158;SDS011;31888;44.512;26.104;2023-01-25T08:42:17;34.58;;;12.98;;
46158;SDS011;31888;44.512;26.104;2023-01-25T08:44:42;35.33;;;13.77;;
46158;SDS011;31888;44.512;26.104;2023-01-25T08:47:07;30.10;;;13.65;;
46158;SDS011;31888;44.512;26.104;2023-01-25T08:49:32;36.35;;;14.48;;
46158;SDS011;31888;44.512;26.104;2023-01-25T08:51:57;34.10;;;15.00;;
46158;SDS011;31888;44.512;26.104;2023-01-25T08:54:22;34.05;;;13.50;;
46158;SDS011;31888;44.512;26.104;2023-01-25T08:56:47;40.45;;;14.80;;
46158;SDS011;31888;44.512;26.104;2023-01-25T08:59:13;33.92;;;13.23;;
46158;SDS011;31888;44.512;26.104;2023-01-25T09:01:38;38.05;;;14.10;;
46158;SDS011;31888;44.512;26.104;2023-01-25T09:04:03;31.83;;;12.98;;
46158;SDS011;31888;44.512;26.104;2023-01-25T09:06:28;30.55;;;13.13;;
46158;SDS011;31888;44.512;26.104;2023-01-25T09:08:53;35.05;;;13.35;;
46158;SDS011;31888;44.512;26.104;2023-01-25T09:11:19;34.45;;;14.05;;
46158;SDS011;31888;44.512;26.104;2023-01-25T09:13:45;33.35;;;13.23;;
46158;SDS011;31888;44.512;26.104;2023-01-25T09:16:13;28.85;;;12.40;;
46158;SDS011;31888;44.512;26.104;2023-01-25T09:18:40;33.33;;;13.27;;
46158;SDS011;31888;44.512;26.104;2023-01-25T09:21:06;39.03;;;13.02;;
46158;SDS011;31888;44.512;26.104;2023-01-25T09:23:32;40.25;;;14.90;;
46158;SDS011;31888;44.512;26.104;2023-01-25T09:26:18;36.63;;;14.18;;
46158;SDS011;31888;44.512;26.104;2023-01-25T09:28:45;32.15;;;13.00;;
46158;SDS011;31888;44.512;26.104;2023-01-25T09:31:13;34.90;;;15.10;;
46158;SDS011;31888;44.512;26.104;2023-01-25T09:34:16;36.10;;;14.23;;
46158;SDS011;31888;44.512;26.104;2023-01-25T09:36:42;33.92;;;13.98;;
46158;SDS011;31888;44.512;26.104;2023-01-25T09:39:07;37.15;;;14.73;;
46158;SDS011;31888;44.512;26.104;2023-01-25T09:41:38;35.63;;;14.13;;
46158;SDS011;31888;44.512;26.104;2023-01-25T09:44:35;29.67;;;13.48;;
46158;SDS011;31888;44.512;26.104;2023-01-25T09:47:12;31.73;;;11.93;;
46158;SDS011;31888;44.512;26.104;2023-01-25T09:49:56;31.38;;;12.57;;
46158;SDS011;31888;44.512;26.104;2023-01-25T09:52:45;38.03;;;13.88;;
46158;SDS011;31888;44.512;26.104;2023-01-25T09:55:23;31.30;;;14.38;;
46158;SDS011;31888;44.512;26.104;2023-01-25T09:57:50;33.65;;;12.00;;
46158;SDS011;31888;44.512;26.104;2023-01-25T10:00:19;32.20;;;13.05;;
46158;SDS011;31888;44.512;26.104;2023-01-25T10:02:48;35.22;;;13.13;;
46158;SDS011;31888;44.512;26.104;2023-01-25T10:05:19;32.90;;;13.25;;
46158;SDS011;31888;44.512;26.104;2023-01-25T10:07:49;36.35;;;13.23;;
46158;SDS011;31888;44.512;26.104;2023-01-25T10:10:22;33.45;;;12.43;;
46158;SDS011;31888;44.512;26.104;2023-01-25T10:15:18;35.90;;;12.63;;
46158;SDS011;31888;44.512;26.104;2023-01-25T10:17:44;35.53;;;11.97;;
46158;SDS011;31888;44.512;26.104;2023-01-25T10:20:14;31.02;;;12.35;;
46158;SDS011;31888;44.512;26.104;2023-01-25T10:22:48;34.75;;;13.55;;
46158;SDS011;31888;44.512;26.104;2023-01-25T10:25:22;31.70;;;13.20;;
46158;SDS011;31888;44.512;26.104;2023-01-25T10:27:59;29.58;;;12.27;;
46158;SDS011;31888;44.512;26.104;2023-01-25T10:30:34;30.15;;;12.65;;
46158;SDS011;31888;44.512;26.104;2023-01-25T10:33:08;32.65;;;12.65;;
46158;SDS011;31888;44.512;26.104;2023-01-25T10:35:37;31.38;;;13.88;;
46158;SDS011;31888;44.512;26.104;2023-01-25T10:38:10;33.42;;;13.60;;
46158;SDS011;31888;44.512;26.104;2023-01-25T10:40:40;31.17;;;12.63;;
46158;SDS011;31888;44.512;26.104;2023-01-25T10:43:11;43.38;;;15.23;;
46158;SDS011;31888;44.512;26.104;2023-01-25T10:45:39;44.05;;;17.38;;
46158;SDS011;31888;44.512;26.104;2023-01-25T10:48:05;28.70;;;12.75;;
46158;SDS011;31888;44.512;26.104;2023-01-25T10:50:43;31.05;;;12.75;;
46158;SDS011;31888;44.512;26.104;2023-01-25T10:53:17;34.90;;;15.00;;
46158;SDS011;31888;44.512;26.104;2023-01-25T10:55:58;31.85;;;13.20;;
46158;SDS011;31888;44.512;26.104;2023-01-25T10:58:35;30.05;;;11.77;;
46158;SDS011;31888;44.512;26.104;2023-01-25T11:01:01;31.27;;;11.82;;
46158;SDS011;31888;44.512;26.104;2023-01-25T11:03:39;26.67;;;10.75;;
46158;SDS011;31888;44.512;26.104;2023-01-25T11:06:09;25.27;;;10.73;;
46158;SDS011;31888;44.512;26.104;2023-01-25T11:08:34;26.13;;;12.27;;
46158;SDS011;31888;44.512;26.104;2023-01-25T11:11:10;33.92;;;13.20;;
46158;SDS011;31888;44.512;26.104;2023-01-25T11:13:48;29.27;;;12.20;;
46158;SDS011;31888;44.512;26.104;2023-01-25T11:16:17;27.00;;;10.98;;
46158;SDS011;31888;44.512;26.104;2023-01-25T11:18:51;32.25;;;12.35;;
46158;SDS011;31888;44.512;26.104;2023-01-25T11:21:19;26.30;;;10.75;;
46158;SDS011;31888;44.512;26.104;2023-01-25T11:23:48;36.20;;;11.70;;
46158;SDS011;31888;44.512;26.104;2023-01-25T11:26:22;25.65;;;11.35;;
46158;SDS011;31888;44.512;26.104;2023-01-25T11:28:46;31.50;;;11.52;;
46158;SDS011;31888;44.512;26.104;2023-01-25T11:31:11;28.23;;;12.07;;
46158;SDS011;31888;44.512;26.104;2023-01-25T11:33:37;23.48;;;10.30;;
46158;SDS011;31888;44.512;26.104;2023-01-25T11:36:09;26.85;;;11.07;;
46158;SDS011;31888;44.512;26.104;2023-01-25T11:38:49;23.25;;;10.15;;
46158;SDS011;31888;44.512;26.104;2023-01-25T11:41:50;19.25;;;9.30;;
46158;SDS011;31888;44.512;26.104;2023-01-25T11:44:27;24.58;;;9.63;;
46158;SDS011;31888;44.512;26.104;2023-01-25T11:47:11;20.88;;;9.32;;
46158;SDS011;31888;44.512;26.104;2023-01-25T11:49:51;23.30;;;9.02;;
46158;SDS011;31888;44.512;26.104;2023-01-25T11:52:23;24.42;;;11.02;;
46158;SDS011;31888;44.512;26.104;2023-01-25T11:54:57;28.52;;;10.07;;
46158;SDS011;31888;44.512;26.104;2023-01-25T11:57:38;28.15;;;12.80;;
46158;SDS011;31888;44.512;26.104;2023-01-25T12:00:25;25.80;;;11.07;;
46158;SDS011;31888;44.512;26.104;2023-01-25T12:06:11;24.52;;;12.23;;
46158;SDS011;31888;44.512;26.104;2023-01-25T12:08:45;35.00;;;12.45;;
46158;SDS011;31888;44.512;26.104;2023-01-25T12:11:30;31.40;;;14.25;;
46158;SDS011;31888;44.512;26.104;2023-01-25T12:14:05;30.33;;;12.18;;
46158;SDS011;31888;44.512;26.104;2023-01-25T12:16:49;30.23;;;13.30;;
46158;SDS011;31888;44.512;26.104;2023-01-25T12:19:33;30.08;;;12.20;;
46158;SDS011;31888;44.512;26.104;2023-01-25T12:22:13;27.42;;;11.48;;
46158;SDS011;31888;44.512;26.104;2023-01-25T12:25:00;26.23;;;11.48;;
46158;SDS011;31888;44.512;26.104;2023-01-25T12:27:37;25.40;;;10.52;;
46158;SDS011;31888;44.512;26.104;2023-01-25T12:30:14;22.77;;;9.45;;
46158;SDS011;31888;44.512;26.104;2023-01-25T12:32:49;26.92;;;11.13;;
46158;SDS011;31888;44.512;26.104;2023-01-25T12:35:36;33.67;;;13.40;;
46158;SDS011;31888;44.512;26.104;2023-01-25T12:38:03;30.23;;;12.80;;
46158;SDS011;31888;44.512;26.104;2023-01-25T12:40:39;31.65;;;11.68;;
46158;SDS011;31888;44.512;26.104;2023-01-25T12:43:10;23.00;;;9.48;;
46158;SDS011;31888;44.512;26.104;2023-01-25T12:45:39;27.70;;;11.10;;
46158;SDS011;31888;44.512;26.104;2023-01-25T12:48:12;26.25;;;12.00;;
46158;SDS011;31888;44.512;26.104;2023-01-25T12:50:40;21.52;;;9.38;;
46158;SDS011;31888;44.512;26.104;2023-01-25T12:53:18;29.88;;;11.27;;
46158;SDS011;31888;44.512;26.104;2023-01-25T12:55:45;27.80;;;11.25;;
46158;SDS011;31888;44.512;26.104;2023-01-25T12:58:14;28.80;;;10.98;;
46158;SDS011;31888;44.512;26.104;2023-01-25T13:01:01;23.23;;;10.57;;
46158;SDS011;31888;44.512;26.104;2023-01-25T13:03:34;24.98;;;11.02;;
46158;SDS011;31888;44.512;26.104;2023-01-25T13:06:06;26.58;;;10.65;;
46158;SDS011;31888;44.512;26.104;2023-01-25T13:08:40;23.33;;;10.30;;
46158;SDS011;31888;44.512;26.104;2023-01-25T13:11:12;29.35;;;12.05;;
46158;SDS011;31888;44.512;26.104;2023-01-25T13:13:43;25.35;;;10.20;;
46158;SDS011;31888;44.512;26.104;2023-01-25T13:18:59;25.10;;;9.70;;
46158;SDS011;31888;44.512;26.104;2023-01-25T13:21:37;26.90;;;9.88;;
46158;SDS011;31888;44.512;26.104;2023-01-25T13:24:16;22.40;;;9.90;;
46158;SDS011;31888;44.512;26.104;2023-01-25T13:35:25;27.08;;;10.70;;
46158;SDS011;31888;44.512;26.104;2023-01-25T13:41:03;31.67;;;12.20;;
46158;SDS011;31888;44.512;26.104;2023-01-25T13:43:49;23.83;;;11.35;;
46158;SDS011;31888;44.512;26.104;2023-01-25T13:46:32;29.42;;;10.80;;
46158;SDS011;31888;44.512;26.104;2023-01-25T13:48:59;22.75;;;8.75;;
46158;SDS011;31888;44.512;26.104;2023-01-25T13:51:26;25.98;;;11.00;;
46158;SDS011;31888;44.512;26.104;2023-01-25T13:53:58;26.73;;;10.13;;
46158;SDS011;31888;44.512;26.104;2023-01-25T13:56:27;24.88;;;10.82;;
46158;SDS011;31888;44.512;26.104;2023-01-25T13:58:56;31.45;;;10.50;;
46158;SDS011;31888;44.512;26.104;2023-01-25T14:01:27;24.27;;;9.50;;
46158;SDS011;31888;44.512;26.104;2023-01-25T14:03:56;22.35;;;10.05;;
46158;SDS011;31888;44.512;26.104;2023-01-25T14:06:24;25.40;;;10.32;;
46158;SDS011;31888;44.512;26.104;2023-01-25T14:08:50;32.50;;;11.80;;
46158;SDS011;31888;44.512;26.104;2023-01-25T14:11:17;25.02;;;10.07;;
46158;SDS011;31888;44.512;26.104;2023-01-25T14:13:54;23.98;;;9.80;;
46158;SDS011;31888;44.512;26.104;2023-01-25T14:16:19;24.33;;;9.85;;
46158;SDS011;31888;44.512;26.104;2023-01-25T14:18:44;26.30;;;10.07;;
46158;SDS011;31888;44.512;26.104;2023-01-25T14:21:11;28.05;;;10.40;;
46158;SDS011;31888;44.512;26.104;2023-01-25T14:23:39;31.92;;;12.05;;
46158;SDS011;31888;44.512;26.104;2023-01-25T14:26:10;18.60;;;8.05;;
46158;SDS011;31888;44.512;26.104;2023-01-25T14:28:43;24.20;;;10.23;;
46158;SDS011;31888;44.512;26.104;2023-01-25T14:31:23;24.40;;;10.32;;
46158;SDS011;31888;44.512;26.104;2023-01-25T14:33:58;24.58;;;10.05;;
46158;SDS011;31888;44.512;26.104;2023-01-25T14:36:29;22.83;;;10.20;;
46158;SDS011;31888;44.512;26.104;2023-01-25T14:38:59;24.85;;;10.05;;
46158;SDS011;31888;44.512;26.104;2023-01-25T14:41:26;29.92;;;10.15;;
46158;SDS011;31888;44.512;26.104;2023-01-25T14:43:55;26.35;;;10.88;;
46158;SDS011;31888;44.512;26.104;2023-01-25T14:46:23;28.55;;;10.65;;
46158;SDS011;31888;44.512;26.104;2023-01-25T14:48:49;24.30;;;10.02;;
46158;SDS011;31888;44.512;26.104;2023-01-25T14:51:16;27.38;;;11.40;;